createdAt,value
2023-03-01T00:01:34.134Z,41.25
2023-03-01T00:04:01.606Z,38.40
2023-03-01T00:06:29.691Z,38.90
2023-03-01T00:08:57.529Z,36.70
2023-03-01T00:11:28.178Z,42.10
2023-03-01T00:13:58.299Z,42.72
2023-03-01T00:16:31.752Z,42.88
2023-03-01T00:18:59.466Z,46.70
2023-03-01T00:21:28.090Z,47.08
2023-03-01T00:23:56.153Z,46.70
2023-03-01T00:26:25.054Z,39.63
2023-03-01T00:28:53.125Z,43.88
2023-03-01T00:31:23.546Z,43.25
2023-03-01T00:33:58.139Z,38.28
2023-03-01T00:36:28.651Z,44.10
2023-03-01T00:38:56.924Z,40.40
2023-03-01T00:41:28.034Z,39.42
2023-03-01T00:43:56.114Z,44.38
2023-03-01T00:46:26.995Z,39.85
2023-03-01T00:48:55.618Z,35.70
2023-03-01T00:51:27.903Z,36.85
2023-03-01T00:56:26.473Z,40.70
2023-03-01T00:58:53.975Z,40.20
2023-03-01T01:01:24.962Z,39.53
2023-03-01T01:04:01.703Z,36.17
2023-03-01T01:06:35.463Z,38.78
2023-03-01T01:09:04.894Z,38.65
2023-03-01T01:11:38.968Z,37.33
2023-03-01T01:14:06.578Z,41.13
2023-03-01T01:16:34.479Z,36.97
2023-03-01T01:19:03.097Z,33.97
2023-03-01T01:21:31.075Z,40.05
2023-03-01T01:23:59.031Z,37.67
2023-03-01T01:26:30.016Z,35.78
2023-03-01T01:28:58.316Z,40.47
2023-03-01T01:31:26.815Z,36.08
2023-03-01T01:33:54.893Z,40.40
2023-03-01T01:36:22.846Z,36.97
2023-03-01T01:38:50.404Z,40.72
2023-03-01T01:41:18.421Z,35.60
2023-03-01T01:44:07.029Z,41.10
2023-03-01T01:46:39.496Z,39.45
2023-03-01T01:52:25.432Z,36.80
2023-03-01T01:55:01.558Z,38.90
2023-03-01T01:57:35.500Z,38.20
2023-03-01T02:00:13.279Z,40.60
2023-03-01T02:02:44.055Z,44.72
2023-03-01T02:05:34.361Z,41.88
2023-03-01T02:08:02.304Z,44.67
2023-03-01T02:10:34.383Z,43.00
2023-03-01T02:13:04.061Z,43.67
2023-03-01T02:15:36.933Z,41.63
2023-03-01T02:18:05.894Z,43.90
2023-03-01T02:20:50.873Z,40.65
2023-03-01T02:23:18.741Z,38.88
2023-03-01T02:26:23.511Z,44.78
2023-03-01T02:28:51.781Z,40.60
2023-03-01T02:31:40.662Z,38.05
2023-03-01T02:34:16.932Z,40.75
2023-03-01T02:36:49.132Z,39.30
2023-03-01T02:39:25.112Z,40.58
2023-03-01T02:41:55.220Z,41.25
2023-03-01T02:44:23.156Z,46.10
2023-03-01T02:46:57.555Z,39.40
2023-03-01T02:49:29.055Z,40.47
2023-03-01T02:52:15.202Z,45.58
2023-03-01T02:55:02.090Z,41.35
2023-03-01T02:57:32.384Z,42.88
2023-03-01T03:00:08.576Z,48.53
2023-03-01T03:02:37.698Z,42.70
2023-03-01T03:05:20.153Z,48.72
2023-03-01T03:07:49.450Z,44.28
2023-03-01T03:10:23.756Z,42.80
2023-03-01T03:12:53.433Z,42.88
2023-03-01T03:15:21.664Z,43.88
2023-03-01T03:17:50.616Z,48.35
2023-03-01T03:20:20.806Z,43.05
2023-03-01T03:22:51.982Z,46.67
2023-03-01T03:25:20.628Z,46.60
2023-03-01T03:27:49.844Z,50.20
2023-03-01T03:30:19.722Z,46.38
2023-03-01T03:32:54.619Z,54.80
2023-03-01T03:35:25.834Z,54.42
2023-03-01T03:38:03.254Z,53.15
2023-03-01T03:40:32.191Z,51.50
2023-03-01T03:42:59.718Z,51.70
2023-03-01T03:45:27.294Z,53.72
2023-03-01T03:47:55.208Z,55.15
2023-03-01T03:50:22.798Z,54.67
2023-03-01T03:52:50.259Z,53.35
2023-03-01T03:55:20.440Z,57.40
2023-03-01T03:57:52.659Z,49.20
2023-03-01T04:00:24.910Z,49.97
2023-03-01T04:02:52.668Z,66.22
2023-03-01T04:05:20.168Z,52.92
2023-03-01T04:07:47.818Z,53.20
2023-03-01T04:10:17.812Z,54.65
2023-03-01T04:12:45.493Z,54.85
2023-03-01T04:15:16.014Z,55.35
2023-03-01T04:17:45.892Z,53.60
2023-03-01T04:20:18.456Z,57.95
2023-03-01T04:22:49.046Z,51.07
2023-03-01T04:25:16.571Z,57.47
2023-03-01T04:27:44.102Z,54.47
2023-03-01T04:30:12.196Z,58.55
2023-03-01T04:32:39.806Z,58.63
2023-03-01T04:35:07.688Z,52.72
2023-03-01T04:37:36.000Z,57.00
2023-03-01T04:40:14.061Z,58.90
2023-03-01T04:42:41.552Z,54.25
2023-03-01T04:45:14.301Z,68.78
2023-03-01T04:47:43.867Z,53.15
2023-03-01T04:50:13.398Z,52.33
2023-03-01T04:52:41.022Z,55.35
2023-03-01T04:55:08.996Z,49.22
2023-03-01T04:57:36.864Z,51.28
2023-03-01T05:00:21.711Z,57.65
2023-03-01T05:02:58.168Z,58.78
2023-03-01T05:05:29.590Z,54.20
2023-03-01T05:07:58.881Z,54.53
2023-03-01T05:10:30.174Z,59.53
2023-03-01T05:12:58.925Z,56.88
2023-03-01T05:15:28.921Z,57.22
2023-03-01T05:17:59.776Z,54.55
2023-03-01T05:20:29.757Z,62.17
2023-03-01T05:23:00.641Z,53.78
2023-03-01T05:25:28.422Z,53.80
2023-03-01T05:27:55.831Z,68.03
2023-03-01T05:30:23.729Z,81.40
2023-03-01T05:32:57.020Z,79.13
2023-03-01T05:37:52.764Z,57.65
2023-03-01T05:40:23.323Z,67.22
2023-03-01T05:42:56.426Z,74.43
2023-03-01T05:45:26.269Z,67.63
2023-03-01T05:47:56.120Z,64.03
2023-03-01T05:50:29.512Z,61.17
2023-03-01T05:53:09.665Z,63.10
2023-03-01T05:55:38.087Z,69.90
2023-03-01T05:58:11.344Z,64.03
2023-03-01T06:00:38.945Z,67.75
2023-03-01T06:03:06.446Z,78.95
2023-03-01T06:05:34.195Z,86.22
2023-03-01T06:08:02.376Z,97.15
2023-03-01T06:10:30.785Z,91.80
2023-03-01T06:12:59.450Z,77.88
2023-03-01T06:15:27.661Z,64.85
2023-03-01T06:17:59.950Z,59.25
2023-03-01T06:20:31.179Z,67.38
2023-03-01T06:22:58.792Z,58.40
2023-03-01T06:25:27.975Z,50.78
2023-03-01T06:27:55.920Z,47.90
2023-03-01T06:30:24.947Z,44.53
2023-03-01T06:32:52.847Z,42.88
2023-03-01T06:35:20.965Z,45.58
2023-03-01T06:37:49.302Z,48.45
2023-03-01T06:40:17.176Z,44.03
2023-03-01T06:42:52.849Z,44.22
2023-03-01T06:45:21.943Z,46.22
2023-03-01T06:47:50.032Z,45.78
2023-03-01T06:50:18.679Z,46.45
2023-03-01T06:55:14.405Z,42.35
2023-03-01T06:57:42.156Z,44.38
2023-03-01T07:00:10.310Z,42.45
2023-03-01T07:02:37.888Z,41.28
2023-03-01T07:05:05.783Z,36.88
2023-03-01T07:07:33.435Z,42.15
2023-03-01T07:10:00.946Z,36.45
2023-03-01T07:12:28.453Z,36.90
2023-03-01T07:14:55.915Z,39.35
2023-03-01T07:17:23.436Z,44.13
2023-03-01T07:19:50.958Z,39.25
2023-03-01T07:22:18.485Z,38.28
2023-03-01T07:24:45.974Z,40.17
2023-03-01T07:27:13.527Z,41.85
2023-03-01T07:29:41.001Z,34.13
2023-03-01T07:32:08.664Z,36.60
2023-03-01T07:34:36.206Z,37.85
2023-03-01T07:37:03.831Z,37.40
2023-03-01T07:39:31.265Z,37.92
2023-03-01T07:41:58.863Z,40.42
2023-03-01T07:44:27.284Z,42.45
2023-03-01T07:46:57.458Z,39.30
2023-03-01T07:49:25.132Z,41.10
2023-03-01T07:51:52.549Z,39.20
2023-03-01T07:54:20.016Z,37.03
2023-03-01T07:56:47.768Z,41.33
2023-03-01T07:59:15.437Z,41.20
2023-03-01T08:01:42.920Z,41.97
2023-03-01T08:04:10.649Z,42.33
2023-03-01T08:06:38.414Z,43.28
2023-03-01T08:09:05.928Z,40.83
2023-03-01T08:11:33.482Z,39.22
2023-03-01T08:14:01.054Z,44.85
2023-03-01T08:16:28.955Z,42.47
2023-03-01T08:18:57.832Z,39.60
2023-03-01T08:21:25.249Z,44.75
2023-03-01T08:23:52.771Z,41.40
2023-03-01T08:26:22.373Z,41.72
2023-03-01T08:28:51.151Z,45.60
2023-03-01T08:31:27.935Z,42.67
2023-03-01T08:33:59.098Z,46.28
2023-03-01T08:36:32.634Z,43.35
2023-03-01T08:39:01.071Z,46.03
2023-03-01T08:41:28.743Z,41.22
2023-03-01T08:44:00.109Z,45.90
2023-03-01T08:46:33.849Z,44.78
2023-03-01T08:49:01.609Z,43.50
2023-03-01T08:51:30.375Z,47.70
2023-03-01T08:53:57.974Z,42.63
2023-03-01T08:56:25.520Z,44.83
2023-03-01T08:58:52.994Z,54.47
2023-03-01T09:01:20.649Z,49.17
2023-03-01T09:03:49.186Z,52.88
2023-03-01T09:06:17.611Z,47.10
2023-03-01T09:08:47.800Z,53.95
2023-03-01T09:11:18.630Z,50.75
2023-03-01T09:13:47.481Z,51.63
2023-03-01T09:16:18.777Z,54.90
2023-03-01T09:18:49.761Z,54.80
2023-03-01T09:21:24.905Z,51.92
2023-03-01T09:23:59.895Z,53.22
2023-03-01T09:26:27.496Z,53.50
2023-03-01T09:28:57.202Z,56.67
2023-03-01T09:31:25.576Z,51.30
2023-03-01T09:33:54.911Z,56.13
2023-03-01T09:36:24.488Z,56.25
2023-03-01T09:38:53.982Z,53.85
2023-03-01T09:41:48.607Z,55.45
2023-03-01T09:44:28.738Z,59.03
2023-03-01T09:46:58.248Z,48.80
2023-03-01T09:49:34.660Z,50.90
2023-03-01T09:52:08.548Z,55.22
2023-03-01T09:54:36.153Z,51.30
2023-03-01T09:57:29.852Z,46.85
2023-03-01T10:00:35.746Z,49.72
2023-03-01T10:03:17.015Z,50.03
2023-03-01T10:06:07.486Z,45.58
2023-03-01T10:08:48.867Z,49.80
2023-03-01T10:11:31.248Z,52.67
2023-03-01T10:14:15.199Z,46.90
2023-03-01T10:19:25.638Z,51.58
2023-03-01T10:21:54.198Z,47.03
2023-03-01T10:24:22.766Z,51.53
2023-03-01T10:27:03.904Z,54.50
2023-03-01T10:29:38.854Z,56.20
2023-03-01T10:32:09.493Z,50.55
2023-03-01T10:34:37.728Z,51.20
2023-03-01T10:37:13.348Z,54.47
2023-03-01T10:39:57.237Z,52.15
2023-03-01T10:42:34.271Z,45.97
2023-03-01T10:45:20.413Z,45.15
2023-03-01T10:47:48.019Z,44.53
2023-03-01T10:50:23.986Z,49.25
2023-03-01T10:53:01.006Z,51.95
2023-03-01T10:55:40.283Z,50.83
2023-03-01T10:58:17.142Z,52.70
2023-03-01T11:00:53.933Z,53.15
2023-03-01T11:03:33.518Z,45.50
2023-03-01T11:06:12.900Z,53.42
2023-03-01T11:08:46.054Z,49.85
2023-03-01T11:11:13.996Z,45.63
2023-03-01T11:13:56.987Z,44.92
2023-03-01T11:16:28.370Z,48.83
2023-03-01T11:19:01.877Z,46.45
2023-03-01T11:21:33.776Z,45.42
2023-03-01T11:24:03.020Z,42.72
2023-03-01T11:26:35.217Z,43.13
2023-03-01T11:29:12.256Z,47.35
2023-03-01T11:31:56.767Z,45.33
2023-03-01T11:34:50.965Z,48.67
2023-03-01T11:37:38.765Z,45.70
2023-03-01T11:40:23.212Z,53.78
2023-03-01T11:43:19.398Z,46.20
2023-03-01T11:46:24.521Z,46.65
2023-03-01T11:49:00.107Z,48.55
2023-03-01T11:51:44.315Z,46.05
2023-03-01T11:54:21.427Z,49.92
2023-03-01T11:56:56.012Z,49.38
2023-03-01T12:00:14.794Z,41.72
2023-03-01T12:02:50.265Z,38.85
2023-03-01T12:05:48.381Z,36.78
2023-03-01T12:08:27.414Z,37.78
2023-03-01T12:11:13.680Z,32.63
2023-03-01T12:14:06.334Z,33.08
2023-03-01T12:17:01.983Z,34.55
2023-03-01T12:19:38.631Z,33.08
2023-03-01T12:22:46.792Z,31.80
2023-03-01T12:25:40.316Z,32.40
2023-03-01T12:28:16.916Z,30.08
2023-03-01T12:31:09.287Z,29.00
2023-03-01T12:33:53.393Z,29.70
2023-03-01T12:39:00.833Z,31.85
2023-03-01T12:41:43.789Z,32.75
2023-03-01T12:44:38.889Z,33.03
2023-03-01T12:47:41.142Z,37.67
2023-03-01T12:50:19.687Z,37.60
2023-03-01T12:52:59.559Z,32.78
2023-03-01T12:55:39.021Z,33.17
2023-03-01T12:58:43.677Z,38.55
2023-03-01T13:01:23.672Z,37.17
2023-03-01T13:04:12.096Z,39.83
2023-03-01T13:06:57.070Z,37.28
2023-03-01T13:09:53.175Z,37.53
2023-03-01T13:12:48.513Z,38.38
2023-03-01T13:15:25.354Z,40.10
2023-03-01T13:18:20.511Z,39.53
2023-03-01T13:20:51.501Z,42.30
2023-03-01T13:23:21.806Z,40.17
2023-03-01T13:26:01.302Z,34.60
2023-03-01T13:28:52.876Z,36.08
2023-03-01T13:31:20.346Z,32.63
2023-03-01T13:33:48.802Z,37.00
2023-03-01T13:36:35.658Z,40.08
2023-03-01T13:39:33.076Z,47.13
2023-03-01T13:42:01.720Z,42.13
2023-03-01T13:44:39.888Z,40.78
2023-03-01T13:47:18.601Z,38.67
2023-03-01T13:49:58.872Z,39.67
2023-03-01T13:52:43.448Z,48.97
2023-03-01T13:55:26.033Z,44.67
2023-03-01T13:58:00.004Z,47.05
2023-03-01T14:00:29.002Z,42.55
2023-03-01T14:03:07.156Z,38.75
2023-03-01T14:05:34.971Z,37.08
2023-03-01T14:08:03.145Z,40.45
2023-03-01T14:11:06.972Z,40.10
2023-03-01T14:13:55.469Z,44.50
2023-03-01T14:16:33.506Z,40.28
2023-03-01T14:19:33.691Z,37.28
2023-03-01T14:22:20.727Z,36.03
2023-03-01T14:25:03.593Z,37.10
2023-03-01T14:27:43.034Z,39.88
2023-03-01T14:30:32.264Z,40.92
2023-03-01T14:33:02.252Z,37.20
2023-03-01T14:35:35.855Z,40.35
2023-03-01T14:40:35.623Z,34.45
2023-03-01T14:43:12.025Z,37.25
2023-03-01T14:45:39.550Z,34.65
2023-03-01T14:48:08.374Z,33.42
2023-03-01T14:50:41.116Z,36.80
2023-03-01T14:53:18.478Z,31.92
2023-03-01T14:55:51.658Z,36.80
2023-03-01T14:58:23.491Z,38.30
2023-03-01T15:00:57.810Z,39.72
2023-03-01T15:03:32.991Z,39.72
2023-03-01T15:06:03.504Z,42.90
2023-03-01T15:08:35.470Z,39.22
2023-03-01T15:11:18.333Z,42.22
2023-03-01T15:13:49.644Z,39.67
2023-03-01T15:16:21.643Z,41.22
2023-03-01T15:19:01.769Z,42.40
2023-03-01T15:21:34.310Z,38.72
2023-03-01T15:24:20.680Z,40.10
2023-03-01T15:27:03.000Z,41.25
2023-03-01T15:29:34.427Z,38.80
2023-03-01T15:32:05.723Z,39.78
2023-03-01T15:34:40.136Z,39.42
2023-03-01T15:37:38.282Z,39.10
2023-03-01T15:40:25.916Z,39.83
2023-03-01T15:42:53.577Z,43.55
2023-03-01T15:45:28.368Z,37.55
2023-03-01T15:48:04.587Z,40.33
2023-03-01T15:50:35.072Z,37.65
2023-03-01T15:53:07.941Z,41.95
2023-03-01T15:55:35.459Z,39.77
2023-03-01T15:58:06.073Z,36.60
2023-03-01T16:00:34.268Z,43.75
2023-03-01T16:03:01.713Z,35.20
2023-03-01T16:05:33.250Z,36.88
2023-03-01T16:08:01.730Z,37.15
2023-03-01T16:10:29.653Z,39.20
2023-03-01T16:12:57.186Z,35.92
2023-03-01T16:15:29.504Z,39.50
2023-03-01T16:18:01.654Z,36.30
2023-03-01T16:20:33.512Z,43.05
2023-03-01T16:23:06.797Z,39.67
2023-03-01T16:25:35.922Z,35.97
2023-03-01T16:28:06.117Z,36.40
2023-03-01T16:30:36.887Z,37.00
2023-03-01T16:33:24.543Z,37.60
2023-03-01T16:35:55.544Z,38.85
2023-03-01T16:38:23.102Z,44.67
2023-03-01T16:40:52.356Z,42.47
2023-03-01T16:43:19.828Z,38.50
2023-03-01T16:45:47.816Z,42.13
2023-03-01T16:48:15.682Z,41.65
2023-03-01T16:50:43.212Z,40.50
2023-03-01T16:53:11.027Z,44.17
2023-03-01T16:55:39.072Z,41.70
2023-03-01T16:58:06.839Z,37.70
2023-03-01T17:00:34.358Z,45.47
2023-03-01T17:03:01.874Z,45.85
2023-03-01T17:05:29.324Z,43.72
2023-03-01T17:07:58.240Z,38.85
2023-03-01T17:10:25.783Z,37.97
2023-03-01T17:12:53.234Z,35.63
2023-03-01T17:15:20.784Z,38.85
2023-03-01T17:17:51.942Z,40.58
2023-03-01T17:20:20.182Z,38.58
2023-03-01T17:22:47.704Z,36.88
2023-03-01T17:25:15.954Z,37.78
2023-03-01T17:27:43.601Z,44.72
2023-03-01T17:30:13.108Z,44.08
2023-03-01T17:32:40.871Z,49.50
2023-03-01T17:35:11.753Z,42.90
2023-03-01T17:37:46.599Z,40.80
2023-03-01T17:40:14.568Z,44.05
2023-03-01T17:42:42.162Z,37.05
2023-03-01T17:45:10.007Z,33.90
2023-03-01T17:47:38.042Z,35.33
2023-03-01T17:50:06.659Z,35.88
2023-03-01T17:52:34.233Z,37.67
2023-03-01T17:55:01.904Z,35.30
2023-03-01T17:57:29.400Z,35.42
2023-03-01T17:59:56.953Z,37.05
2023-03-01T18:02:26.641Z,38.72
2023-03-01T18:04:59.049Z,42.38
2023-03-01T18:07:27.589Z,39.45
2023-03-01T18:09:56.239Z,34.63
2023-03-01T18:12:23.759Z,36.75
2023-03-01T18:14:53.929Z,32.95
2023-03-01T18:17:23.998Z,32.70
2023-03-01T18:19:51.904Z,37.65
2023-03-01T18:22:19.799Z,43.03
2023-03-01T18:24:47.281Z,47.63
2023-03-01T18:27:15.103Z,42.90
2023-03-01T18:29:42.612Z,42.05
2023-03-01T18:32:10.083Z,41.30
2023-03-01T18:34:37.797Z,42.63
2023-03-01T18:37:09.455Z,40.80
2023-03-01T18:39:38.211Z,41.55
2023-03-01T18:42:05.866Z,49.50
2023-03-01T18:44:34.729Z,41.95
2023-03-01T18:47:02.411Z,45.28
2023-03-01T18:49:29.979Z,49.65
2023-03-01T18:51:57.448Z,42.63
2023-03-01T18:54:25.148Z,42.75
2023-03-01T18:56:52.673Z,47.65
2023-03-01T18:59:20.160Z,52.30
2023-03-01T19:01:47.798Z,40.80
2023-03-01T19:04:15.466Z,37.05
2023-03-01T19:06:42.960Z,44.72
2023-03-01T19:09:11.559Z,42.75
2023-03-01T19:11:39.118Z,44.22
2023-03-01T19:14:06.739Z,42.33
2023-03-01T19:16:35.824Z,45.85
2023-03-01T19:19:06.329Z,45.45
2023-03-01T19:21:34.351Z,38.35
2023-03-01T19:24:05.147Z,36.50
2023-03-01T19:26:33.932Z,37.58
2023-03-01T19:29:03.623Z,34.35
2023-03-01T19:31:31.361Z,41.97
2023-03-01T19:34:11.633Z,33.72
2023-03-01T19:36:42.829Z,37.38
2023-03-01T19:39:13.801Z,34.45
2023-03-01T19:41:42.319Z,34.15
2023-03-01T19:44:10.542Z,31.52
2023-03-01T19:46:38.137Z,30.92
2023-03-01T19:49:05.773Z,33.70
2023-03-01T19:51:36.211Z,33.47
2023-03-01T19:54:05.671Z,34.22
2023-03-01T19:56:34.249Z,38.97
2023-03-01T19:59:04.592Z,35.15
2023-03-01T20:01:34.774Z,36.78
2023-03-01T20:04:03.394Z,39.78
2023-03-01T20:06:31.292Z,38.00
2023-03-01T20:09:02.374Z,37.50
2023-03-01T20:11:34.260Z,40.38
2023-03-01T20:14:02.444Z,44.40
2023-03-01T20:16:30.326Z,38.83
2023-03-01T20:19:00.802Z,42.58
2023-03-01T20:21:29.069Z,38.83
2023-03-01T20:23:56.549Z,37.80
2023-03-01T20:26:25.510Z,36.85
2023-03-01T20:28:55.513Z,33.65
2023-03-01T20:31:28.827Z,34.75
2023-03-01T20:33:58.047Z,37.90
2023-03-01T20:36:26.382Z,37.75
2023-03-01T20:38:56.092Z,38.72
2023-03-01T20:41:26.572Z,36.90
2023-03-01T20:43:56.608Z,34.33
2023-03-01T20:46:26.826Z,35.55
2023-03-01T20:48:54.725Z,34.08
2023-03-01T20:51:22.354Z,35.58
2023-03-01T20:53:50.667Z,29.23
2023-03-01T20:56:19.492Z,30.42
2023-03-01T21:01:32.406Z,58.80
2023-03-01T21:03:59.992Z,44.63
2023-03-01T21:06:27.799Z,48.17
2023-03-01T21:08:56.598Z,49.70
2023-03-01T21:11:25.444Z,61.47
2023-03-01T21:13:54.372Z,42.38
2023-03-01T21:16:22.132Z,35.30
2023-03-01T21:18:49.806Z,42.05
2023-03-01T21:21:20.229Z,37.17
2023-03-01T21:23:48.471Z,32.83
2023-03-01T21:26:25.370Z,33.63
2023-03-01T21:28:58.446Z,32.45
2023-03-01T21:31:29.121Z,37.78
2023-03-01T21:33:58.917Z,37.35
2023-03-01T21:36:28.311Z,38.38
2023-03-01T21:38:56.152Z,34.13
2023-03-01T21:41:26.361Z,38.92
2023-03-01T21:43:57.587Z,40.22
2023-03-01T21:46:26.434Z,36.60
2023-03-01T21:48:55.037Z,36.45
2023-03-01T21:51:25.037Z,39.20
2023-03-01T21:53:54.455Z,37.17
2023-03-01T21:56:25.111Z,35.33
2023-03-01T21:58:53.844Z,34.10
2023-03-01T22:01:27.349Z,37.72
2023-03-01T22:06:34.536Z,34.83
2023-03-01T22:09:17.292Z,36.45
2023-03-01T22:11:48.980Z,36.63
2023-03-01T22:14:18.025Z,36.13
2023-03-01T22:16:47.839Z,37.00
2023-03-01T22:19:16.967Z,37.17
2023-03-01T22:21:47.247Z,38.65
2023-03-01T22:24:15.225Z,38.80
2023-03-01T22:26:45.426Z,33.95
2023-03-01T22:29:17.652Z,39.53
2023-03-01T22:31:45.782Z,36.40
2023-03-01T22:34:14.930Z,41.40
2023-03-01T22:36:42.480Z,40.92
2023-03-01T22:39:10.033Z,36.20
2023-03-01T22:41:45.492Z,36.22
2023-03-01T22:44:19.190Z,38.30
2023-03-01T22:49:14.363Z,33.97
2023-03-01T22:51:43.468Z,33.78
2023-03-01T22:54:11.422Z,34.10
2023-03-01T22:56:39.623Z,33.50
2023-03-01T22:59:09.841Z,36.90
2023-03-01T23:01:39.163Z,36.45
2023-03-01T23:04:06.838Z,43.78
2023-03-01T23:06:35.466Z,42.80
2023-03-01T23:09:04.660Z,44.60
2023-03-01T23:11:32.122Z,41.60
2023-03-01T23:14:00.166Z,43.47
2023-03-01T23:16:27.807Z,46.25
2023-03-01T23:18:59.161Z,43.33
2023-03-01T23:21:27.651Z,50.47
2023-03-01T23:23:56.060Z,44.92
2023-03-01T23:26:27.093Z,43.42
2023-03-01T23:28:55.904Z,47.72
2023-03-01T23:31:23.712Z,46.67
2023-03-01T23:33:51.430Z,51.90
2023-03-01T23:36:23.453Z,48.20
2023-03-01T23:39:03.601Z,51.20
2023-03-01T23:41:33.638Z,52.40
2023-03-01T23:44:02.814Z,47.75
2023-03-01T23:46:33.458Z,51.88
2023-03-01T23:49:02.472Z,52.35
2023-03-01T23:51:29.966Z,54.42
2023-03-01T23:54:01.829Z,51.25
2023-03-01T23:56:36.074Z,44.70
2023-03-01T23:59:10.502Z,48.35
